sensor_id;sensor_type;location;lat;lon;timestamp;P1;durP1;ratioP1;P2;durP2;ratioP2
13457;SDS011;6801;53.018;11.560;2023-04-06T00:00:16;2.55;;;1.08;;
13457;SDS011;6801;53.018;11.560;2023-04-06T00:02:44;3.38;;;1.02;;
13457;SDS011;6801;53.018;11.560;2023-04-06T00:05:12;5.47;;;1.23;;
13457;SDS011;6801;53.018;11.560;2023-04-06T00:07:39;3.17;;;1.33;;
13457;SDS011;6801;53.018;11.560;2023-04-06T00:10:06;2.28;;;1.10;;
13457;SDS011;6801;53.018;11.560;2023-04-06T00:12:34;1.90;;;0.88;;
13457;SDS011;6801;53.018;11.560;2023-04-06T00:15:02;3.50;;;1.23;;
13457;SDS011;6801;53.018;11.560;2023-04-06T00:17:31;3.03;;;1.10;;
13457;SDS011;6801;53.018;11.560;2023-04-06T00:19:59;2.67;;;1.00;;
13457;SDS011;6801;53.018;11.560;2023-04-06T00:22:26;5.30;;;1.48;;
13457;SDS011;6801;53.018;11.560;2023-04-06T00:24:53;1.73;;;0.98;;
13457;SDS011;6801;53.018;11.560;2023-04-06T00:27:20;2.30;;;1.10;;
13457;SDS011;6801;53.018;11.560;2023-04-06T00:29:47;3.80;;;1.52;;
13457;SDS011;6801;53.018;11.560;2023-04-06T00:32:14;2.97;;;1.35;;
13457;SDS011;6801;53.018;11.560;2023-04-06T00:34:41;3.58;;;1.40;;
13457;SDS011;6801;53.018;11.560;2023-04-06T00:37:10;2.45;;;1.23;;
13457;SDS011;6801;53.018;11.560;2023-04-06T00:39:37;4.47;;;1.90;;
13457;SDS011;6801;53.018;11.560;2023-04-06T00:42:07;4.20;;;1.40;;
13457;SDS011;6801;53.018;11.560;2023-04-06T00:44:39;2.90;;;1.33;;
13457;SDS011;6801;53.018;11.560;2023-04-06T00:47:06;4.32;;;1.70;;
13457;SDS011;6801;53.018;11.560;2023-04-06T00:49:34;4.00;;;1.55;;
13457;SDS011;6801;53.018;11.560;2023-04-06T00:52:02;2.47;;;1.50;;
13457;SDS011;6801;53.018;11.560;2023-04-06T00:54:31;3.83;;;1.52;;
13457;SDS011;6801;53.018;11.560;2023-04-06T00:56:59;4.43;;;2.25;;
13457;SDS011;6801;53.018;11.560;2023-04-06T00:59:28;5.38;;;1.48;;
13457;SDS011;6801;53.018;11.560;2023-04-06T01:01:57;3.80;;;1.25;;
13457;SDS011;6801;53.018;11.560;2023-04-06T01:04:34;3.55;;;1.27;;
13457;SDS011;6801;53.018;11.560;2023-04-06T01:07:03;2.35;;;1.48;;
13457;SDS011;6801;53.018;11.560;2023-04-06T01:09:40;3.38;;;1.60;;
13457;SDS011;6801;53.018;11.560;2023-04-06T01:12:14;3.20;;;1.50;;
13457;SDS011;6801;53.018;11.560;2023-04-06T01:14:42;9.30;;;4.80;;
13457;SDS011;6801;53.018;11.560;2023-04-06T01:17:09;3.63;;;2.00;;
13457;SDS011;6801;53.018;11.560;2023-04-06T01:19:37;4.55;;;1.60;;
13457;SDS011;6801;53.018;11.560;2023-04-06T01:22:05;3.17;;;1.90;;
13457;SDS011;6801;53.018;11.560;2023-04-06T01:24:44;3.67;;;1.90;;
13457;SDS011;6801;53.018;11.560;2023-04-06T01:27:15;3.13;;;1.77;;
13457;SDS011;6801;53.018;11.560;2023-04-06T01:30:03;5.05;;;1.80;;
13457;SDS011;6801;53.018;11.560;2023-04-06T01:32:43;4.53;;;2.17;;
13457;SDS011;6801;53.018;11.560;2023-04-06T01:35:12;3.33;;;2.00;;
13457;SDS011;6801;53.018;11.560;2023-04-06T01:37:47;3.45;;;1.73;;
13457;SDS011;6801;53.018;11.560;2023-04-06T01:40:23;3.25;;;1.52;;
13457;SDS011;6801;53.018;11.560;2023-04-06T01:42:51;2.85;;;1.33;;
13457;SDS011;6801;53.018;11.560;2023-04-06T01:45:27;2.88;;;1.52;;
13457;SDS011;6801;53.018;11.560;2023-04-06T01:48:00;3.90;;;1.75;;
13457;SDS011;6801;53.018;11.560;2023-04-06T01:50:28;4.07;;;2.00;;
13457;SDS011;6801;53.018;11.560;2023-04-06T01:52:55;3.50;;;1.55;;
13457;SDS011;6801;53.018;11.560;2023-04-06T01:55:26;4.32;;;1.83;;
13457;SDS011;6801;53.018;11.560;2023-04-06T01:58:15;5.38;;;1.65;;
13457;SDS011;6801;53.018;11.560;2023-04-06T02:00:42;6.20;;;2.30;;
13457;SDS011;6801;53.018;11.560;2023-04-06T02:03:10;3.00;;;1.85;;
13457;SDS011;6801;53.018;11.560;2023-04-06T02:05:37;3.83;;;1.77;;
13457;SDS011;6801;53.018;11.560;2023-04-06T02:08:17;4.00;;;1.60;;
13457;SDS011;6801;53.018;11.560;2023-04-06T02:10:46;4.50;;;1.92;;
13457;SDS011;6801;53.018;11.560;2023-04-06T02:13:23;4.07;;;2.00;;
13457;SDS011;6801;53.018;11.560;2023-04-06T02:15:52;4.28;;;1.83;;
13457;SDS011;6801;53.018;11.560;2023-04-06T02:18:20;8.48;;;2.42;;
13457;SDS011;6801;53.018;11.560;2023-04-06T02:20:47;3.13;;;1.63;;
13457;SDS011;6801;53.018;11.560;2023-04-06T02:23:14;3.40;;;1.60;;
13457;SDS011;6801;53.018;11.560;2023-04-06T02:25:41;4.72;;;1.70;;
13457;SDS011;6801;53.018;11.560;2023-04-06T02:28:10;4.43;;;1.60;;
13457;SDS011;6801;53.018;11.560;2023-04-06T02:30:37;3.80;;;1.38;;
13457;SDS011;6801;53.018;11.560;2023-04-06T02:33:04;2.72;;;1.63;;
13457;SDS011;6801;53.018;11.560;2023-04-06T02:35:39;3.47;;;1.65;;
13457;SDS011;6801;53.018;11.560;2023-04-06T02:38:07;2.88;;;1.50;;
13457;SDS011;6801;53.018;11.560;2023-04-06T02:40:34;4.10;;;1.58;;
13457;SDS011;6801;53.018;11.560;2023-04-06T02:43:14;3.85;;;2.22;;
13457;SDS011;6801;53.018;11.560;2023-04-06T02:45:43;3.40;;;1.67;;
13457;SDS011;6801;53.018;11.560;2023-04-06T02:48:11;4.18;;;1.40;;
13457;SDS011;6801;53.018;11.560;2023-04-06T02:50:38;4.63;;;1.90;;
13457;SDS011;6801;53.018;11.560;2023-04-06T02:53:06;3.70;;;1.80;;
13457;SDS011;6801;53.018;11.560;2023-04-06T02:55:36;4.32;;;1.92;;
13457;SDS011;6801;53.018;11.560;2023-04-06T02:58:03;3.33;;;1.70;;
13457;SDS011;6801;53.018;11.560;2023-04-06T03:00:39;7.82;;;1.88;;
13457;SDS011;6801;53.018;11.560;2023-04-06T03:03:07;9.00;;;1.90;;
13457;SDS011;6801;53.018;11.560;2023-04-06T03:05:34;4.07;;;1.73;;
13457;SDS011;6801;53.018;11.560;2023-04-06T03:08:01;25.88;;;3.35;;
13457;SDS011;6801;53.018;11.560;2023-04-06T03:10:41;4.07;;;1.90;;
13457;SDS011;6801;53.018;11.560;2023-04-06T03:13:08;4.18;;;1.92;;
13457;SDS011;6801;53.018;11.560;2023-04-06T03:15:49;3.88;;;1.67;;
13457;SDS011;6801;53.018;11.560;2023-04-06T03:18:20;4.88;;;1.90;;
13457;SDS011;6801;53.018;11.560;2023-04-06T03:20:48;5.80;;;2.33;;
13457;SDS011;6801;53.018;11.560;2023-04-06T03:23:17;5.80;;;2.05;;
13457;SDS011;6801;53.018;11.560;2023-04-06T03:25:46;4.57;;;1.60;;
13457;SDS011;6801;53.018;11.560;2023-04-06T03:28:17;2.72;;;1.33;;
13457;SDS011;6801;53.018;11.560;2023-04-06T03:30:53;4.28;;;1.98;;
13457;SDS011;6801;53.018;11.560;2023-04-06T03:33:38;5.47;;;1.65;;
13457;SDS011;6801;53.018;11.560;2023-04-06T03:36:08;6.43;;;1.60;;
13457;SDS011;6801;53.018;11.560;2023-04-06T03:38:39;2.60;;;1.52;;
13457;SDS011;6801;53.018;11.560;2023-04-06T03:41:10;3.42;;;1.60;;
13457;SDS011;6801;53.018;11.560;2023-04-06T03:43:39;3.55;;;1.50;;
13457;SDS011;6801;53.018;11.560;2023-04-06T03:46:08;3.90;;;1.48;;
13457;SDS011;6801;53.018;11.560;2023-04-06T03:48:35;3.65;;;1.48;;
13457;SDS011;6801;53.018;11.560;2023-04-06T03:51:05;3.10;;;1.42;;
13457;SDS011;6801;53.018;11.560;2023-04-06T03:53:32;3.05;;;1.58;;
13457;SDS011;6801;53.018;11.560;2023-04-06T03:55:59;3.28;;;1.33;;
13457;SDS011;6801;53.018;11.560;2023-04-06T03:58:27;3.45;;;1.77;;
13457;SDS011;6801;53.018;11.560;2023-04-06T04:00:54;6.15;;;1.50;;
13457;SDS011;6801;53.018;11.560;2023-04-06T04:03:22;3.38;;;1.80;;
13457;SDS011;6801;53.018;11.560;2023-04-06T04:08:19;2.63;;;1.60;;
13457;SDS011;6801;53.018;11.560;2023-04-06T04:10:46;4.22;;;1.65;;
13457;SDS011;6801;53.018;11.560;2023-04-06T04:13:13;3.80;;;1.58;;
13457;SDS011;6801;53.018;11.560;2023-04-06T04:15:43;6.90;;;1.70;;
13457;SDS011;6801;53.018;11.560;2023-04-06T04:18:12;13.43;;;2.15;;
13457;SDS011;6801;53.018;11.560;2023-04-06T04:20:41;13.55;;;2.08;;
13457;SDS011;6801;53.018;11.560;2023-04-06T04:23:10;4.57;;;1.90;;
13457;SDS011;6801;53.018;11.560;2023-04-06T04:25:37;12.60;;;2.47;;
13457;SDS011;6801;53.018;11.560;2023-04-06T04:28:05;3.20;;;1.50;;
13457;SDS011;6801;53.018;11.560;2023-04-06T04:30:33;2.92;;;1.60;;
13457;SDS011;6801;53.018;11.560;2023-04-06T04:33:05;2.25;;;1.42;;
13457;SDS011;6801;53.018;11.560;2023-04-06T04:35:32;3.92;;;1.75;;
13457;SDS011;6801;53.018;11.560;2023-04-06T04:38:01;6.43;;;1.83;;
13457;SDS011;6801;53.018;11.560;2023-04-06T04:40:30;8.35;;;2.05;;
13457;SDS011;6801;53.018;11.560;2023-04-06T04:43:05;6.75;;;2.00;;
13457;SDS011;6801;53.018;11.560;2023-04-06T04:45:33;11.90;;;2.28;;
13457;SDS011;6801;53.018;11.560;2023-04-06T04:48:12;14.35;;;2.75;;
13457;SDS011;6801;53.018;11.560;2023-04-06T04:50:52;6.93;;;1.57;;
13457;SDS011;6801;53.018;11.560;2023-04-06T04:53:25;2.97;;;1.60;;
13457;SDS011;6801;53.018;11.560;2023-04-06T04:55:58;3.55;;;1.75;;
13457;SDS011;6801;53.018;11.560;2023-04-06T04:58:27;3.80;;;1.70;;
13457;SDS011;6801;53.018;11.560;2023-04-06T05:00:58;6.15;;;2.03;;
13457;SDS011;6801;53.018;11.560;2023-04-06T05:03:26;10.63;;;2.97;;
13457;SDS011;6801;53.018;11.560;2023-04-06T05:05:58;13.00;;;2.60;;
13457;SDS011;6801;53.018;11.560;2023-04-06T05:08:30;8.00;;;2.33;;
13457;SDS011;6801;53.018;11.560;2023-04-06T05:10:57;7.90;;;2.38;;
13457;SDS011;6801;53.018;11.560;2023-04-06T05:13:26;6.47;;;2.10;;
13457;SDS011;6801;53.018;11.560;2023-04-06T05:15:55;5.10;;;1.80;;
13457;SDS011;6801;53.018;11.560;2023-04-06T05:18:31;42.58;;;3.88;;
13457;SDS011;6801;53.018;11.560;2023-04-06T05:20:59;60.45;;;4.10;;
13457;SDS011;6801;53.018;11.560;2023-04-06T05:23:37;61.63;;;5.22;;
13457;SDS011;6801;53.018;11.560;2023-04-06T05:26:04;21.15;;;2.83;;
13457;SDS011;6801;53.018;11.560;2023-04-06T05:28:32;14.65;;;2.70;;
13457;SDS011;6801;53.018;11.560;2023-04-06T05:31:07;7.30;;;3.78;;
13457;SDS011;6801;53.018;11.560;2023-04-06T05:33:43;6.82;;;2.85;;
13457;SDS011;6801;53.018;11.560;2023-04-06T05:36:13;9.27;;;2.92;;
13457;SDS011;6801;53.018;11.560;2023-04-06T05:38:45;5.03;;;2.63;;
13457;SDS011;6801;53.018;11.560;2023-04-06T05:41:30;5.75;;;3.42;;
13457;SDS011;6801;53.018;11.560;2023-04-06T05:43:57;4.80;;;2.45;;
13457;SDS011;6801;53.018;11.560;2023-04-06T05:46:25;8.18;;;2.50;;
13457;SDS011;6801;53.018;11.560;2023-04-06T05:48:54;10.82;;;3.42;;
13457;SDS011;6801;53.018;11.560;2023-04-06T05:51:24;5.45;;;2.97;;
13457;SDS011;6801;53.018;11.560;2023-04-06T05:53:53;51.42;;;6.38;;
13457;SDS011;6801;53.018;11.560;2023-04-06T05:56:21;4.25;;;2.80;;
13457;SDS011;6801;53.018;11.560;2023-04-06T05:58:49;8.68;;;3.10;;
13457;SDS011;6801;53.018;11.560;2023-04-06T06:01:22;7.60;;;3.47;;
13457;SDS011;6801;53.018;11.560;2023-04-06T06:03:49;6.25;;;4.40;;
13457;SDS011;6801;53.018;11.560;2023-04-06T06:06:16;9.52;;;4.32;;
13457;SDS011;6801;53.018;11.560;2023-04-06T06:08:58;6.67;;;3.77;;
13457;SDS011;6801;53.018;11.560;2023-04-06T06:11:27;5.05;;;2.60;;
13457;SDS011;6801;53.018;11.560;2023-04-06T06:13:54;4.68;;;2.70;;
13457;SDS011;6801;53.018;11.560;2023-04-06T06:16:21;5.82;;;2.97;;
13457;SDS011;6801;53.018;11.560;2023-04-06T06:18:48;6.13;;;2.75;;
13457;SDS011;6801;53.018;11.560;2023-04-06T06:21:15;4.78;;;3.00;;
13457;SDS011;6801;53.018;11.560;2023-04-06T06:23:43;5.65;;;3.08;;
13457;SDS011;6801;53.018;11.560;2023-04-06T06:26:16;4.88;;;3.17;;
13457;SDS011;6801;53.018;11.560;2023-04-06T06:28:43;6.10;;;2.90;;
13457;SDS011;6801;53.018;11.560;2023-04-06T06:31:11;5.43;;;2.65;;
13457;SDS011;6801;53.018;11.560;2023-04-06T06:33:39;7.05;;;2.88;;
13457;SDS011;6801;53.018;11.560;2023-04-06T06:36:07;4.85;;;3.03;;
13457;SDS011;6801;53.018;11.560;2023-04-06T06:38:34;7.57;;;3.22;;
13457;SDS011;6801;53.018;11.560;2023-04-06T06:41:01;6.90;;;2.95;;
13457;SDS011;6801;53.018;11.560;2023-04-06T06:43:32;6.38;;;3.20;;
13457;SDS011;6801;53.018;11.560;2023-04-06T06:46:05;6.60;;;3.78;;
13457;SDS011;6801;53.018;11.560;2023-04-06T06:48:32;7.90;;;3.63;;
13457;SDS011;6801;53.018;11.560;2023-04-06T06:50:59;10.38;;;4.20;;
13457;SDS011;6801;53.018;11.560;2023-04-06T06:53:26;5.60;;;3.50;;
13457;SDS011;6801;53.018;11.560;2023-04-06T06:55:54;7.65;;;3.78;;
13457;SDS011;6801;53.018;11.560;2023-04-06T06:58:22;6.32;;;3.45;;
13457;SDS011;6801;53.018;11.560;2023-04-06T07:00:50;8.65;;;3.88;;
13457;SDS011;6801;53.018;11.560;2023-04-06T07:03:22;8.88;;;3.78;;
13457;SDS011;6801;53.018;11.560;2023-04-06T07:05:49;7.13;;;3.70;;
13457;SDS011;6801;53.018;11.560;2023-04-06T07:08:18;8.02;;;4.20;;
13457;SDS011;6801;53.018;11.560;2023-04-06T07:10:45;8.65;;;4.32;;
13457;SDS011;6801;53.018;11.560;2023-04-06T07:13:13;6.88;;;4.10;;
13457;SDS011;6801;53.018;11.560;2023-04-06T07:15:44;8.25;;;3.63;;
13457;SDS011;6801;53.018;11.560;2023-04-06T07:18:12;8.32;;;4.40;;
13457;SDS011;6801;53.018;11.560;2023-04-06T07:20:40;10.73;;;5.10;;
13457;SDS011;6801;53.018;11.560;2023-04-06T07:23:07;8.65;;;4.60;;
13457;SDS011;6801;53.018;11.560;2023-04-06T07:25:34;6.53;;;3.90;;
13457;SDS011;6801;53.018;11.560;2023-04-06T07:28:01;7.25;;;4.60;;
13457;SDS011;6801;53.018;11.560;2023-04-06T07:30:28;10.80;;;4.65;;
13457;SDS011;6801;53.018;11.560;2023-04-06T07:32:55;8.20;;;5.15;;
13457;SDS011;6801;53.018;11.560;2023-04-06T07:35:25;7.93;;;4.10;;
13457;SDS011;6801;53.018;11.560;2023-04-06T07:37:55;8.40;;;4.55;;
13457;SDS011;6801;53.018;11.560;2023-04-06T07:40:23;8.20;;;4.70;;
13457;SDS011;6801;53.018;11.560;2023-04-06T07:42:52;8.93;;;5.57;;
13457;SDS011;6801;53.018;11.560;2023-04-06T07:45:18;9.35;;;6.38;;
13457;SDS011;6801;53.018;11.560;2023-04-06T07:47:46;9.38;;;5.25;;
13457;SDS011;6801;53.018;11.560;2023-04-06T07:50:13;12.88;;;4.72;;
13457;SDS011;6801;53.018;11.560;2023-04-06T07:52:42;9.48;;;4.95;;
13457;SDS011;6801;53.018;11.560;2023-04-06T07:55:09;6.85;;;4.65;;
13457;SDS011;6801;53.018;11.560;2023-04-06T07:57:36;9.88;;;5.80;;
13457;SDS011;6801;53.018;11.560;2023-04-06T08:00:03;9.88;;;5.57;;
13457;SDS011;6801;53.018;11.560;2023-04-06T08:02:37;7.97;;;4.38;;
13457;SDS011;6801;53.018;11.560;2023-04-06T08:05:04;11.15;;;5.95;;
13457;SDS011;6801;53.018;11.560;2023-04-06T08:07:32;7.22;;;4.70;;
13457;SDS011;6801;53.018;11.560;2023-04-06T08:10:00;7.50;;;5.18;;
13457;SDS011;6801;53.018;11.560;2023-04-06T08:12:27;7.05;;;4.53;;
13457;SDS011;6801;53.018;11.560;2023-04-06T08:14:55;7.80;;;5.65;;
13457;SDS011;6801;53.018;11.560;2023-04-06T08:17:22;21.92;;;6.05;;
13457;SDS011;6801;53.018;11.560;2023-04-06T08:19:49;7.60;;;5.22;;
13457;SDS011;6801;53.018;11.560;2023-04-06T08:22:16;22.50;;;6.85;;
13457;SDS011;6801;53.018;11.560;2023-04-06T08:24:43;10.50;;;5.93;;
13457;SDS011;6801;53.018;11.560;2023-04-06T08:27:11;15.65;;;7.53;;
13457;SDS011;6801;53.018;11.560;2023-04-06T08:29:39;12.77;;;6.95;;
13457;SDS011;6801;53.018;11.560;2023-04-06T08:32:06;14.27;;;7.05;;
13457;SDS011;6801;53.018;11.560;2023-04-06T08:34:33;10.10;;;6.35;;
13457;SDS011;6801;53.018;11.560;2023-04-06T08:37:00;9.82;;;6.35;;
13457;SDS011;6801;53.018;11.560;2023-04-06T08:39:27;10.80;;;6.30;;
13457;SDS011;6801;53.018;11.560;2023-04-06T08:41:55;9.73;;;6.55;;
13457;SDS011;6801;53.018;11.560;2023-04-06T08:44:26;12.98;;;7.38;;
13457;SDS011;6801;53.018;11.560;2023-04-06T08:46:53;12.27;;;8.25;;
13457;SDS011;6801;53.018;11.560;2023-04-06T08:49:20;12.45;;;8.50;;
13457;SDS011;6801;53.018;11.560;2023-04-06T08:51:48;10.25;;;6.28;;
13457;SDS011;6801;53.018;11.560;2023-04-06T08:54:16;11.65;;;7.05;;
13457;SDS011;6801;53.018;11.560;2023-04-06T08:56:42;11.20;;;7.55;;
13457;SDS011;6801;53.018;11.560;2023-04-06T08:59:10;17.48;;;7.85;;
13457;SDS011;6801;53.018;11.560;2023-04-06T09:01:40;13.98;;;7.82;;
13457;SDS011;6801;53.018;11.560;2023-04-06T09:04:08;13.75;;;8.25;;
13457;SDS011;6801;53.018;11.560;2023-04-06T09:06:36;13.02;;;7.15;;
13457;SDS011;6801;53.018;11.560;2023-04-06T09:09:05;17.98;;;13.07;;
13457;SDS011;6801;53.018;11.560;2023-04-06T09:11:43;14.05;;;9.07;;
13457;SDS011;6801;53.018;11.560;2023-04-06T09:14:10;12.15;;;7.38;;
13457;SDS011;6801;53.018;11.560;2023-04-06T09:16:42;11.57;;;8.13;;
13457;SDS011;6801;53.018;11.560;2023-04-06T09:19:12;12.30;;;7.40;;
13457;SDS011;6801;53.018;11.560;2023-04-06T09:21:39;11.98;;;7.90;;
13457;SDS011;6801;53.018;11.560;2023-04-06T09:24:07;11.60;;;8.13;;
13457;SDS011;6801;53.018;11.560;2023-04-06T09:26:44;9.65;;;6.43;;
13457;SDS011;6801;53.018;11.560;2023-04-06T09:29:21;17.58;;;5.57;;
13457;SDS011;6801;53.018;11.560;2023-04-06T09:32:01;11.82;;;7.50;;
13457;SDS011;6801;53.018;11.560;2023-04-06T09:34:29;19.77;;;7.90;;
13457;SDS011;6801;53.018;11.560;2023-04-06T09:36:56;9.95;;;7.15;;
13457;SDS011;6801;53.018;11.560;2023-04-06T09:39:23;10.43;;;6.00;;
13457;SDS011;6801;53.018;11.560;2023-04-06T09:41:51;11.60;;;6.72;;
13457;SDS011;6801;53.018;11.560;2023-04-06T09:44:19;9.07;;;6.85;;
13457;SDS011;6801;53.018;11.560;2023-04-06T09:46:46;14.68;;;7.97;;
13457;SDS011;6801;53.018;11.560;2023-04-06T09:49:15;11.80;;;6.05;;
13457;SDS011;6801;53.018;11.560;2023-04-06T09:51:44;9.68;;;6.38;;
13457;SDS011;6801;53.018;11.560;2023-04-06T09:56:43;9.07;;;6.10;;
13457;SDS011;6801;53.018;11.560;2023-04-06T09:59:13;9.05;;;6.78;;
13457;SDS011;6801;53.018;11.560;2023-04-06T10:01:48;8.75;;;6.35;;
13457;SDS011;6801;53.018;11.560;2023-04-06T10:04:21;9.75;;;6.20;;
13457;SDS011;6801;53.018;11.560;2023-04-06T10:06:59;8.77;;;6.50;;
13457;SDS011;6801;53.018;11.560;2023-04-06T10:09:28;8.60;;;5.88;;
13457;SDS011;6801;53.018;11.560;2023-04-06T10:12:02;7.57;;;5.95;;
13457;SDS011;6801;53.018;11.560;2023-04-06T10:14:30;8.82;;;6.55;;
13457;SDS011;6801;53.018;11.560;2023-04-06T10:16:59;7.80;;;5.60;;
13457;SDS011;6801;53.018;11.560;2023-04-06T10:19:29;8.02;;;6.32;;
13457;SDS011;6801;53.018;11.560;2023-04-06T10:22:04;8.80;;;5.93;;
13457;SDS011;6801;53.018;11.560;2023-04-06T10:24:32;7.65;;;5.30;;
13457;SDS011;6801;53.018;11.560;2023-04-06T10:27:00;7.13;;;5.40;;
13457;SDS011;6801;53.018;11.560;2023-04-06T10:29:28;8.60;;;5.75;;
13457;SDS011;6801;53.018;11.560;2023-04-06T10:32:06;9.07;;;5.80;;
13457;SDS011;6801;53.018;11.560;2023-04-06T10:34:35;9.85;;;5.53;;
13457;SDS011;6801;53.018;11.560;2023-04-06T10:37:10;6.97;;;4.93;;
13457;SDS011;6801;53.018;11.560;2023-04-06T10:39:45;9.40;;;4.93;;
13457;SDS011;6801;53.018;11.560;2023-04-06T10:42:12;6.82;;;4.70;;
13457;SDS011;6801;53.018;11.560;2023-04-06T10:44:41;6.85;;;5.10;;
13457;SDS011;6801;53.018;11.560;2023-04-06T10:47:15;10.18;;;5.82;;
13457;SDS011;6801;53.018;11.560;2023-04-06T10:49:44;11.25;;;5.45;;
13457;SDS011;6801;53.018;11.560;2023-04-06T10:52:11;8.57;;;5.47;;
13457;SDS011;6801;53.018;11.560;2023-04-06T10:54:41;5.93;;;3.65;;
13457;SDS011;6801;53.018;11.560;2023-04-06T10:57:09;6.78;;;4.75;;
13457;SDS011;6801;53.018;11.560;2023-04-06T10:59:36;8.85;;;5.28;;
13457;SDS011;6801;53.018;11.560;2023-04-06T11:02:08;6.65;;;4.32;;
13457;SDS011;6801;53.018;11.560;2023-04-06T11:04:34;7.07;;;4.63;;
13457;SDS011;6801;53.018;11.560;2023-04-06T11:07:03;7.35;;;4.07;;
13457;SDS011;6801;53.018;11.560;2023-04-06T11:09:30;8.07;;;4.63;;
13457;SDS011;6801;53.018;11.560;2023-04-06T11:11:57;5.43;;;3.45;;
13457;SDS011;6801;53.018;11.560;2023-04-06T11:14:25;5.78;;;3.28;;
13457;SDS011;6801;53.018;11.560;2023-04-06T11:16:52;7.15;;;3.95;;
13457;SDS011;6801;53.018;11.560;2023-04-06T11:19:20;11.43;;;3.80;;
13457;SDS011;6801;53.018;11.560;2023-04-06T11:21:47;6.35;;;3.13;;
13457;SDS011;6801;53.018;11.560;2023-04-06T11:24:17;7.05;;;3.90;;
13457;SDS011;6801;53.018;11.560;2023-04-06T11:26:47;8.20;;;4.40;;
13457;SDS011;6801;53.018;11.560;2023-04-06T11:29:16;5.53;;;4.20;;
13457;SDS011;6801;53.018;11.560;2023-04-06T11:31:45;5.72;;;3.20;;
13457;SDS011;6801;53.018;11.560;2023-04-06T11:34:13;5.78;;;3.35;;
13457;SDS011;6801;53.018;11.560;2023-04-06T11:36:43;6.82;;;3.47;;
13457;SDS011;6801;53.018;11.560;2023-04-06T11:39:11;4.47;;;3.03;;
13457;SDS011;6801;53.018;11.560;2023-04-06T11:41:40;5.00;;;3.30;;
13457;SDS011;6801;53.018;11.560;2023-04-06T11:44:07;12.27;;;3.88;;
13457;SDS011;6801;53.018;11.560;2023-04-06T11:46:35;5.78;;;3.65;;
13457;SDS011;6801;53.018;11.560;2023-04-06T11:49:02;5.25;;;3.30;;
13457;SDS011;6801;53.018;11.560;2023-04-06T11:51:29;7.10;;;3.38;;
13457;SDS011;6801;53.018;11.560;2023-04-06T11:53:56;5.80;;;3.80;;
13457;SDS011;6801;53.018;11.560;2023-04-06T11:56:23;41.58;;;5.90;;
13457;SDS011;6801;53.018;11.560;2023-04-06T11:58:53;5.38;;;3.40;;
13457;SDS011;6801;53.018;11.560;2023-04-06T12:01:21;5.28;;;3.47;;
13457;SDS011;6801;53.018;11.560;2023-04-06T12:03:49;6.03;;;3.55;;
13457;SDS011;6801;53.018;11.560;2023-04-06T12:06:17;6.38;;;3.47;;
13457;SDS011;6801;53.018;11.560;2023-04-06T12:08:44;5.93;;;3.15;;
13457;SDS011;6801;53.018;11.560;2023-04-06T12:11:11;5.75;;;3.20;;
13457;SDS011;6801;53.018;11.560;2023-04-06T12:13:38;6.22;;;3.05;;
13457;SDS011;6801;53.018;11.560;2023-04-06T12:16:07;5.07;;;2.78;;
13457;SDS011;6801;53.018;11.560;2023-04-06T12:18:34;7.90;;;3.40;;
13457;SDS011;6801;53.018;11.560;2023-04-06T12:21:01;6.80;;;3.13;;
13457;SDS011;6801;53.018;11.560;2023-04-06T12:23:27;7.00;;;3.72;;
13457;SDS011;6801;53.018;11.560;2023-04-06T12:25:54;4.85;;;3.15;;
13457;SDS011;6801;53.018;11.560;2023-04-06T12:28:21;6.60;;;3.53;;
13457;SDS011;6801;53.018;11.560;2023-04-06T12:30:52;5.43;;;3.65;;
13457;SDS011;6801;53.018;11.560;2023-04-06T12:33:21;3.67;;;2.42;;
13457;SDS011;6801;53.018;11.560;2023-04-06T12:35:48;7.30;;;3.70;;
13457;SDS011;6801;53.018;11.560;2023-04-06T12:38:15;7.10;;;3.42;;
13457;SDS011;6801;53.018;11.560;2023-04-06T12:40:42;3.88;;;2.40;;
13457;SDS011;6801;53.018;11.560;2023-04-06T12:43:09;5.63;;;3.28;;
13457;SDS011;6801;53.018;11.560;2023-04-06T12:45:36;4.88;;;3.15;;
13457;SDS011;6801;53.018;11.560;2023-04-06T12:48:03;5.00;;;3.10;;
13457;SDS011;6801;53.018;11.560;2023-04-06T12:50:31;4.47;;;3.15;;
13457;SDS011;6801;53.018;11.560;2023-04-06T12:52:58;5.97;;;3.30;;
13457;SDS011;6801;53.018;11.560;2023-04-06T12:55:25;5.85;;;3.00;;
13457;SDS011;6801;53.018;11.560;2023-04-06T12:57:55;6.60;;;3.40;;
13457;SDS011;6801;53.018;11.560;2023-04-06T13:00:23;4.80;;;2.10;;
13457;SDS011;6801;53.018;11.560;2023-04-06T13:02:50;22.45;;;3.95;;
13457;SDS011;6801;53.018;11.560;2023-04-06T13:05:17;8.45;;;3.20;;
13457;SDS011;6801;53.018;11.560;2023-04-06T13:07:46;7.32;;;3.00;;
13457;SDS011;6801;53.018;11.560;2023-04-06T13:10:13;6.40;;;2.67;;
13457;SDS011;6801;53.018;11.560;2023-04-06T13:12:40;6.72;;;2.70;;
13457;SDS011;6801;53.018;11.560;2023-04-06T13:15:07;5.68;;;3.17;;
13457;SDS011;6801;53.018;11.560;2023-04-06T13:17:35;7.78;;;3.25;;
13457;SDS011;6801;53.018;11.560;2023-04-06T13:20:02;4.13;;;2.13;;
13457;SDS011;6801;53.018;11.560;2023-04-06T13:22:31;10.82;;;3.17;;
13457;SDS011;6801;53.018;11.560;2023-04-06T13:24:59;8.73;;;3.08;;
13457;SDS011;6801;53.018;11.560;2023-04-06T13:27:26;6.18;;;3.20;;
13457;SDS011;6801;53.018;11.560;2023-04-06T13:29:53;4.57;;;2.70;;
13457;SDS011;6801;53.018;11.560;2023-04-06T13:32:21;4.57;;;3.05;;
13457;SDS011;6801;53.018;11.560;2023-04-06T13:34:48;4.78;;;2.78;;
13457;SDS011;6801;53.018;11.560;2023-04-06T13:37:15;5.50;;;3.30;;
13457;SDS011;6801;53.018;11.560;2023-04-06T13:39:42;5.10;;;3.30;;
13457;SDS011;6801;53.018;11.560;2023-04-06T13:42:10;5.35;;;2.72;;
13457;SDS011;6801;53.018;11.560;2023-04-06T13:44:37;5.35;;;3.20;;
13457;SDS011;6801;53.018;11.560;2023-04-06T13:47:04;5.53;;;3.40;;
13457;SDS011;6801;53.018;11.560;2023-04-06T13:49:31;8.82;;;3.17;;
13457;SDS011;6801;53.018;11.560;2023-04-06T13:51:58;6.68;;;3.40;;
13457;SDS011;6801;53.018;11.560;2023-04-06T13:54:26;5.13;;;3.40;;
13457;SDS011;6801;53.018;11.560;2023-04-06T13:56:53;5.70;;;3.25;;
13457;SDS011;6801;53.018;11.560;2023-04-06T13:59:23;5.00;;;2.90;;
13457;SDS011;6801;53.018;11.560;2023-04-06T14:01:50;5.38;;;3.40;;
13457;SDS011;6801;53.018;11.560;2023-04-06T14:04:17;4.68;;;3.05;;
13457;SDS011;6801;53.018;11.560;2023-04-06T14:06:44;4.85;;;3.30;;
13457;SDS011;6801;53.018;11.560;2023-04-06T14:09:11;6.75;;;3.40;;
13457;SDS011;6801;53.018;11.560;2023-04-06T14:11:38;6.07;;;3.58;;
13457;SDS011;6801;53.018;11.560;2023-04-06T14:14:05;6.28;;;3.20;;
13457;SDS011;6801;53.018;11.560;2023-04-06T14:16:33;5.45;;;3.42;;
13457;SDS011;6801;53.018;11.560;2023-04-06T14:19:00;5.90;;;3.70;;
13457;SDS011;6801;53.018;11.560;2023-04-06T14:21:27;6.68;;;3.60;;
13457;SDS011;6801;53.018;11.560;2023-04-06T14:23:55;6.05;;;3.20;;
13457;SDS011;6801;53.018;11.560;2023-04-06T14:26:22;15.82;;;4.65;;
13457;SDS011;6801;53.018;11.560;2023-04-06T14:28:49;6.57;;;4.03;;
13457;SDS011;6801;53.018;11.560;2023-04-06T14:31:16;6.10;;;3.38;;
13457;SDS011;6801;53.018;11.560;2023-04-06T14:33:45;7.78;;;3.50;;
13457;SDS011;6801;53.018;11.560;2023-04-06T14:36:12;3.15;;;1.60;;
13457;SDS011;6801;53.018;11.560;2023-04-06T14:38:39;6.38;;;3.58;;
13457;SDS011;6801;53.018;11.560;2023-04-06T14:41:06;5.70;;;3.80;;
13457;SDS011;6801;53.018;11.560;2023-04-06T14:43:34;6.35;;;3.72;;
13457;SDS011;6801;53.018;11.560;2023-04-06T14:46:01;6.53;;;3.42;;
13457;SDS011;6801;53.018;11.560;2023-04-06T14:48:28;7.78;;;3.95;;
13457;SDS011;6801;53.018;11.560;2023-04-06T14:50:56;6.80;;;3.97;;
13457;SDS011;6801;53.018;11.560;2023-04-06T14:53:24;6.07;;;3.75;;
13457;SDS011;6801;53.018;11.560;2023-04-06T14:55:51;6.65;;;3.60;;
13457;SDS011;6801;53.018;11.560;2023-04-06T14:58:19;7.80;;;4.28;;
13457;SDS011;6801;53.018;11.560;2023-04-06T15:00:46;7.65;;;3.45;;